createdAt,value
2018-10-17T00:00:48.659Z,99.90
2018-10-17T00:03:17.140Z,99.90
2018-10-17T00:05:45.698Z,99.90
2018-10-17T00:08:14.175Z,99.90
2018-10-17T00:10:42.742Z,99.90
2018-10-17T00:13:11.372Z,99.90
2018-10-17T00:15:39.998Z,99.90
2018-10-17T00:18:08.494Z,99.90
2018-10-17T00:20:37.013Z,99.90
2018-10-17T00:23:05.936Z,99.90
2018-10-17T00:25:34.549Z,99.90
2018-10-17T00:28:03.284Z,99.90
2018-10-17T00:30:31.833Z,99.90
2018-10-17T00:33:00.372Z,99.90
2018-10-17T00:35:28.930Z,99.90
2018-10-17T00:37:57.476Z,99.90
2018-10-17T00:40:26.058Z,99.90
2018-10-17T00:42:55.171Z,99.90
2018-10-17T00:45:23.698Z,99.90
2018-10-17T00:47:52.239Z,99.90
2018-10-17T00:50:20.842Z,99.90
2018-10-17T00:52:49.424Z,99.90
2018-10-17T00:55:17.923Z,99.90
2018-10-17T00:57:46.512Z,99.90
2018-10-17T01:00:14.993Z,99.90
2018-10-17T01:02:43.514Z,99.90
2018-10-17T01:05:12.141Z,99.90
2018-10-17T01:07:40.577Z,99.90
2018-10-17T01:10:09.099Z,99.90
2018-10-17T01:12:37.614Z,99.90
2018-10-17T01:15:06.197Z,99.90
2018-10-17T01:17:34.772Z,99.90
2018-10-17T01:20:03.526Z,99.90
2018-10-17T01:22:32.185Z,99.90
2018-10-17T01:25:00.746Z,99.90
2018-10-17T01:27:29.262Z,99.90
2018-10-17T01:29:57.801Z,99.90
2018-10-17T01:32:26.335Z,99.90
2018-10-17T01:34:54.929Z,99.90
2018-10-17T01:37:23.397Z,99.90
2018-10-17T01:39:51.876Z,99.90
2018-10-17T01:42:20.417Z,99.90
2018-10-17T01:44:48.968Z,99.90
2018-10-17T01:47:17.474Z,99.90
2018-10-17T01:49:46.025Z,99.90
2018-10-17T01:52:14.490Z,99.90
2018-10-17T01:54:45.981Z,99.90
2018-10-17T01:57:14.467Z,99.90
2018-10-17T01:59:43.011Z,99.90
2018-10-17T02:02:12.683Z,99.90
2018-10-17T02:04:41.200Z,99.90
2018-10-17T02:07:09.908Z,99.90
2018-10-17T02:09:38.435Z,99.90
2018-10-17T02:12:07.022Z,99.90
2018-10-17T02:14:35.601Z,99.90
2018-10-17T02:17:04.232Z,99.90
2018-10-17T02:19:32.779Z,99.90
2018-10-17T02:22:01.321Z,99.90
2018-10-17T02:24:29.962Z,99.90
2018-10-17T02:26:58.618Z,99.90
2018-10-17T02:29:27.222Z,99.90
2018-10-17T02:31:55.734Z,99.90
2018-10-17T02:34:24.327Z,99.90
2018-10-17T02:36:53.050Z,99.90
2018-10-17T02:39:21.627Z,99.90
2018-10-17T02:41:50.163Z,99.90
2018-10-17T02:44:18.646Z,99.90
2018-10-17T02:46:47.507Z,99.90
2018-10-17T02:49:19.105Z,99.90
2018-10-17T02:51:47.611Z,99.90
2018-10-17T02:54:16.130Z,99.90
2018-10-17T02:56:44.639Z,99.90
2018-10-17T02:59:13.241Z,99.90
2018-10-17T03:01:41.758Z,99.90
2018-10-17T03:04:10.304Z,99.90
2018-10-17T03:06:38.837Z,99.90
2018-10-17T03:09:08.600Z,99.90
2018-10-17T03:11:37.208Z,99.90
2018-10-17T03:14:05.695Z,99.90
2018-10-17T03:16:34.227Z,99.90
2018-10-17T03:19:02.787Z,99.90
2018-10-17T03:21:31.295Z,99.90
2018-10-17T03:23:59.840Z,99.90
2018-10-17T03:26:28.344Z,99.90
2018-10-17T03:28:56.941Z,99.90
2018-10-17T03:31:25.553Z,99.90
2018-10-17T03:33:54.217Z,99.90
2018-10-17T03:36:22.812Z,99.90
2018-10-17T03:38:51.324Z,99.90
2018-10-17T03:41:19.934Z,99.90
2018-10-17T03:43:48.452Z,99.90
2018-10-17T03:46:17.030Z,99.90
2018-10-17T03:48:45.835Z,99.90
2018-10-17T03:51:14.520Z,99.90
2018-10-17T03:53:43.032Z,99.90
2018-10-17T03:56:11.656Z,99.90
2018-10-17T03:58:40.190Z,99.90
2018-10-17T04:01:08.762Z,99.90
2018-10-17T04:03:37.324Z,99.90
2018-10-17T04:06:06.218Z,99.90
2018-10-17T04:08:34.750Z,99.90
2018-10-17T04:11:03.677Z,99.90
2018-10-17T04:13:32.200Z,99.90
2018-10-17T04:16:00.730Z,99.90
2018-10-17T04:18:29.231Z,99.90
2018-10-17T04:20:57.716Z,99.90
2018-10-17T04:23:26.273Z,99.90
2018-10-17T04:25:54.804Z,99.90
2018-10-17T04:28:23.318Z,99.90
2018-10-17T04:30:52.177Z,99.90
2018-10-17T04:33:20.660Z,99.90
2018-10-17T04:35:49.253Z,99.90
2018-10-17T04:38:17.813Z,99.90
2018-10-17T04:40:46.406Z,99.90
2018-10-17T04:43:15.007Z,99.90
2018-10-17T04:45:43.547Z,99.90
2018-10-17T04:48:12.171Z,99.90
2018-10-17T04:50:40.724Z,99.90
2018-10-17T04:53:09.307Z,99.90
2018-10-17T04:55:37.832Z,99.90
2018-10-17T04:58:06.386Z,99.90
2018-10-17T05:00:34.891Z,99.90
2018-10-17T05:03:03.375Z,99.90
2018-10-17T05:05:31.899Z,99.90
2018-10-17T05:08:00.445Z,99.90
2018-10-17T05:10:28.999Z,99.90
2018-10-17T05:12:57.556Z,99.90
2018-10-17T05:15:26.209Z,99.90
2018-10-17T05:17:54.771Z,99.90
2018-10-17T05:20:23.356Z,99.90
2018-10-17T05:22:51.952Z,99.90
2018-10-17T05:25:20.511Z,99.90
2018-10-17T05:27:49.108Z,99.90
2018-10-17T05:30:17.695Z,99.90
2018-10-17T05:32:46.344Z,99.90
2018-10-17T05:35:14.916Z,99.90
2018-10-17T05:37:43.518Z,99.90
2018-10-17T05:40:12.128Z,99.90
2018-10-17T05:42:40.716Z,99.90
2018-10-17T05:45:09.464Z,99.90
2018-10-17T05:47:38.035Z,99.90
2018-10-17T05:50:06.624Z,99.90
2018-10-17T05:52:35.260Z,99.90
2018-10-17T05:55:03.969Z,99.90
2018-10-17T05:57:32.489Z,99.90
2018-10-17T06:00:01.028Z,99.90
2018-10-17T06:02:32.249Z,99.90
2018-10-17T06:05:00.874Z,99.90
2018-10-17T06:07:29.450Z,99.90
2018-10-17T06:09:58.040Z,99.90
2018-10-17T06:12:26.729Z,99.90
2018-10-17T06:14:55.357Z,99.90
2018-10-17T06:17:23.985Z,99.90
2018-10-17T06:19:52.533Z,99.90
2018-10-17T06:22:21.043Z,99.90
2018-10-17T06:24:49.724Z,99.90
2018-10-17T06:27:18.354Z,99.90
2018-10-17T06:29:46.912Z,99.90
2018-10-17T06:32:15.537Z,99.90
2018-10-17T06:37:43.426Z,99.90
2018-10-17T06:40:11.971Z,99.90
2018-10-17T06:42:40.587Z,99.90
2018-10-17T06:45:09.189Z,99.90
2018-10-17T06:47:37.708Z,99.90
2018-10-17T06:50:06.656Z,99.90
2018-10-17T06:52:35.220Z,99.90
2018-10-17T06:55:03.908Z,99.90
2018-10-17T06:57:32.409Z,99.90
2018-10-17T07:00:00.892Z,99.90
2018-10-17T07:02:29.417Z,99.90
2018-10-17T07:04:57.986Z,99.90
2018-10-17T07:07:26.507Z,99.90
2018-10-17T07:09:54.993Z,99.90
2018-10-17T07:12:23.557Z,99.90
2018-10-17T07:14:52.057Z,99.90
2018-10-17T07:17:20.620Z,99.90
2018-10-17T07:19:49.157Z,99.90
2018-10-17T07:22:17.660Z,99.90
2018-10-17T07:24:49.250Z,99.90
2018-10-17T07:27:17.778Z,99.90
2018-10-17T07:29:46.469Z,99.90
2018-10-17T07:32:14.918Z,99.90
2018-10-17T07:34:43.434Z,99.90
2018-10-17T07:37:12.065Z,99.90
2018-10-17T07:39:40.682Z,99.90
2018-10-17T07:42:09.312Z,99.90
2018-10-17T07:44:37.888Z,99.90
2018-10-17T07:47:06.570Z,99.90
2018-10-17T07:49:35.145Z,99.90
2018-10-17T07:52:03.666Z,99.90
2018-10-17T07:54:32.225Z,99.90
2018-10-17T07:57:00.762Z,99.90
2018-10-17T07:59:29.582Z,99.90
2018-10-17T08:01:58.109Z,99.90
2018-10-17T08:04:26.688Z,99.90
2018-10-17T08:06:55.414Z,99.90
2018-10-17T08:09:23.997Z,99.90
2018-10-17T08:11:52.627Z,99.90
2018-10-17T08:14:21.382Z,99.90
2018-10-17T08:16:49.983Z,99.90
2018-10-17T08:19:18.523Z,99.90
2018-10-17T08:21:47.108Z,99.90
2018-10-17T08:24:15.696Z,99.90
2018-10-17T08:26:44.223Z,99.90
2018-10-17T08:29:12.930Z,99.90
2018-10-17T08:31:41.486Z,99.90
2018-10-17T08:34:10.032Z,99.90
2018-10-17T08:36:38.780Z,99.90
2018-10-17T08:39:08.425Z,99.90
2018-10-17T08:41:37.022Z,99.90
2018-10-17T08:44:05.690Z,99.90
2018-10-17T08:46:34.448Z,99.90
2018-10-17T08:49:03.056Z,99.90
2018-10-17T08:51:31.635Z,99.90
2018-10-17T08:54:00.244Z,99.90
2018-10-17T08:56:28.793Z,99.90
2018-10-17T08:58:57.363Z,99.90
2018-10-17T09:01:25.943Z,99.90
2018-10-17T09:03:54.458Z,99.90
2018-10-17T09:06:23.006Z,99.90
2018-10-17T09:08:51.516Z,99.90
2018-10-17T09:11:20.006Z,99.90
2018-10-17T09:13:48.829Z,99.90
2018-10-17T09:16:17.545Z,99.90
2018-10-17T09:18:46.046Z,99.90
2018-10-17T09:21:14.884Z,99.90
2018-10-17T09:23:43.221Z,99.90
2018-10-17T09:26:11.755Z,99.90
2018-10-17T09:28:40.610Z,99.90
2018-10-17T09:31:09.163Z,99.90
2018-10-17T09:33:37.705Z,99.90
2018-10-17T09:36:07.039Z,99.90
2018-10-17T09:38:36.397Z,99.90
2018-10-17T09:41:05.641Z,99.90
2018-10-17T09:43:34.515Z,99.90
2018-10-17T09:46:03.308Z,99.90
2018-10-17T09:48:31.970Z,99.90
2018-10-17T09:51:00.699Z,99.90
2018-10-17T09:53:29.790Z,99.90
2018-10-17T09:55:58.418Z,99.90
2018-10-17T09:58:26.964Z,99.90
2018-10-17T10:01:00.959Z,99.90
2018-10-17T10:03:30.239Z,99.90
2018-10-17T10:06:00.232Z,99.90
2018-10-17T10:08:28.796Z,99.90
2018-10-17T10:10:57.470Z,99.90
2018-10-17T10:13:26.052Z,99.90
2018-10-17T10:15:54.668Z,99.90
2018-10-17T10:18:23.786Z,99.90
2018-10-17T10:20:52.355Z,99.90
2018-10-17T10:23:20.898Z,99.90
2018-10-17T10:25:49.627Z,99.90
2018-10-17T10:28:18.256Z,99.90
2018-10-17T10:30:46.709Z,99.90
2018-10-17T10:33:15.336Z,99.90
2018-10-17T10:35:43.850Z,99.90
2018-10-17T10:38:12.456Z,99.90
2018-10-17T10:40:41.154Z,99.90
2018-10-17T10:43:09.592Z,99.90
2018-10-17T10:45:38.178Z,99.90
2018-10-17T10:48:06.891Z,99.90
2018-10-17T10:50:35.382Z,99.90
2018-10-17T10:53:04.034Z,99.90
2018-10-17T10:55:32.506Z,99.90
2018-10-17T10:58:02.026Z,99.90
2018-10-17T11:00:30.662Z,99.90
2018-10-17T11:02:59.451Z,99.90
2018-10-17T11:05:28.280Z,99.90
2018-10-17T11:07:56.665Z,99.90
2018-10-17T11:10:25.292Z,99.90
2018-10-17T11:12:53.860Z,99.90
2018-10-17T11:15:22.634Z,99.90
2018-10-17T11:17:51.203Z,99.90
2018-10-17T11:20:19.799Z,99.90
2018-10-17T11:22:48.456Z,99.90
2018-10-17T11:25:17.069Z,99.90
2018-10-17T11:27:45.931Z,99.90
2018-10-17T11:30:14.557Z,99.90
2018-10-17T11:32:43.190Z,99.90
2018-10-17T11:35:11.922Z,99.90
2018-10-17T11:37:41.559Z,99.90
2018-10-17T11:40:10.315Z,99.60
2018-10-17T11:42:38.759Z,98.10
2018-10-17T11:45:07.711Z,99.90
2018-10-17T11:47:37.670Z,97.30
2018-10-17T11:50:07.898Z,98.80
2018-10-17T11:52:36.781Z,98.70
2018-10-17T11:55:06.136Z,97.50
2018-10-17T11:57:35.087Z,96.80
2018-10-17T12:00:04.062Z,96.10
2018-10-17T12:02:33.096Z,94.60
2018-10-17T12:05:01.916Z,95.20
2018-10-17T12:07:30.350Z,94.30
2018-10-17T12:09:58.962Z,94.00
2018-10-17T12:12:27.562Z,93.00
2018-10-17T12:14:56.146Z,93.60
2018-10-17T12:17:24.731Z,93.70
2018-10-17T12:19:53.349Z,93.30
2018-10-17T12:22:21.942Z,94.30
2018-10-17T12:24:51.789Z,95.50
2018-10-17T12:27:20.564Z,96.10
2018-10-17T12:29:49.116Z,95.10
2018-10-17T12:32:17.775Z,95.90
2018-10-17T12:34:46.432Z,95.50
2018-10-17T12:37:14.927Z,96.00
2018-10-17T12:40:14.584Z,97.30
2018-10-17T12:42:43.121Z,96.40
2018-10-17T12:45:11.770Z,96.50
2018-10-17T12:47:40.351Z,96.00
2018-10-17T12:50:09.690Z,97.10
2018-10-17T12:52:38.411Z,95.30
2018-10-17T12:55:07.518Z,98.80
2018-10-17T12:57:36.106Z,96.60
2018-10-17T13:00:04.928Z,97.70
2018-10-17T13:02:33.532Z,97.80
2018-10-17T13:05:02.148Z,97.60
2018-10-17T13:07:30.764Z,98.60
2018-10-17T13:09:59.668Z,98.10
2018-10-17T13:12:28.237Z,98.60
2018-10-17T13:14:56.853Z,99.10
2018-10-17T13:17:25.329Z,98.90
2018-10-17T13:19:53.825Z,98.70
2018-10-17T13:22:22.531Z,98.40
2018-10-17T13:24:51.058Z,99.40
2018-10-17T13:27:19.698Z,99.70
2018-10-17T13:29:48.705Z,99.90
2018-10-17T13:32:17.240Z,99.20
2018-10-17T13:34:46.030Z,99.40
2018-10-17T13:37:14.730Z,99.90
2018-10-17T13:39:43.293Z,99.90
2018-10-17T13:42:12.196Z,99.90
2018-10-17T13:44:40.872Z,99.90
2018-10-17T13:47:09.969Z,99.90
2018-10-17T13:49:38.810Z,99.90
2018-10-17T13:52:07.198Z,99.90
2018-10-17T13:54:35.815Z,99.90
2018-10-17T13:57:09.009Z,99.90
2018-10-17T13:59:37.625Z,99.90
2018-10-17T14:02:06.385Z,99.90
2018-10-17T14:04:35.821Z,99.90
2018-10-17T14:07:05.422Z,99.90
2018-10-17T14:09:34.585Z,99.90
2018-10-17T14:12:03.917Z,99.90
2018-10-17T14:14:32.926Z,99.90
2018-10-17T14:17:02.623Z,99.90
2018-10-17T14:19:31.721Z,99.90
2018-10-17T14:22:00.943Z,99.90
2018-10-17T14:24:30.058Z,99.90
2018-10-17T14:26:58.759Z,99.90
2018-10-17T14:29:27.411Z,99.90
2018-10-17T14:31:56.330Z,99.90
2018-10-17T14:34:24.911Z,99.90
2018-10-17T14:36:53.575Z,99.90
2018-10-17T14:39:22.168Z,99.90
2018-10-17T14:41:50.687Z,99.90
2018-10-17T14:44:19.219Z,99.90
2018-10-17T14:46:47.743Z,99.90
2018-10-17T14:49:16.436Z,99.90
2018-10-17T14:51:45.038Z,99.90
2018-10-17T14:54:14.164Z,99.90
2018-10-17T14:56:43.564Z,99.90
2018-10-17T14:59:12.781Z,99.90
2018-10-17T15:01:42.338Z,99.90
2018-10-17T15:04:11.730Z,99.90
2018-10-17T15:06:40.299Z,99.90
2018-10-17T15:09:09.647Z,99.90
2018-10-17T15:11:39.386Z,99.90
2018-10-17T15:14:07.895Z,99.90
2018-10-17T15:16:36.742Z,99.90
2018-10-17T15:19:05.817Z,99.90
2018-10-17T15:21:34.439Z,99.90
2018-10-17T15:24:03.074Z,99.90
2018-10-17T15:26:31.752Z,99.90
2018-10-17T15:29:00.323Z,99.90
2018-10-17T15:31:29.007Z,99.90
2018-10-17T15:33:57.667Z,99.90
2018-10-17T15:36:26.261Z,99.90
2018-10-17T15:38:55.616Z,99.90
2018-10-17T15:41:25.319Z,99.90
2018-10-17T15:43:54.318Z,99.90
2018-10-17T15:46:22.942Z,99.90
2018-10-17T15:48:51.514Z,99.90
2018-10-17T15:51:21.058Z,99.90
2018-10-17T15:53:49.589Z,99.90
2018-10-17T15:56:18.154Z,99.90
2018-10-17T15:58:46.733Z,99.90
2018-10-17T16:01:15.284Z,99.90
2018-10-17T16:03:44.462Z,99.90
2018-10-17T16:06:13.310Z,99.90
2018-10-17T16:08:41.833Z,99.90
2018-10-17T16:11:10.315Z,99.90
2018-10-17T16:13:38.855Z,99.90
2018-10-17T16:16:07.399Z,99.90
2018-10-17T16:18:35.956Z,99.90
2018-10-17T16:21:05.048Z,99.90
2018-10-17T16:23:33.850Z,99.90
2018-10-17T16:26:02.549Z,99.90
2018-10-17T16:28:32.360Z,99.90
2018-10-17T16:31:00.992Z,99.90
2018-10-17T16:33:29.550Z,99.90
2018-10-17T16:35:58.239Z,99.90
2018-10-17T16:38:26.783Z,99.90
2018-10-17T16:40:55.323Z,99.90
2018-10-17T16:43:23.993Z,99.90
2018-10-17T16:45:52.619Z,99.90
2018-10-17T16:48:21.783Z,99.90
2018-10-17T16:50:50.502Z,99.90
2018-10-17T16:53:19.050Z,99.90
2018-10-17T16:55:47.651Z,99.90
2018-10-17T16:58:16.330Z,99.90
2018-10-17T17:00:44.864Z,99.90
2018-10-17T17:03:13.421Z,99.90
2018-10-17T17:05:42.256Z,99.90
2018-10-17T17:08:10.827Z,99.90
2018-10-17T17:10:39.398Z,99.90
2018-10-17T17:13:07.851Z,99.90
2018-10-17T17:15:36.451Z,99.90
2018-10-17T17:18:05.076Z,99.90
2018-10-17T17:20:33.624Z,99.90
2018-10-17T17:23:02.197Z,99.90
2018-10-17T17:25:30.752Z,99.90
2018-10-17T17:27:59.249Z,99.90
2018-10-17T17:30:27.800Z,99.90
2018-10-17T17:32:56.573Z,99.90
2018-10-17T17:35:25.889Z,99.90
2018-10-17T17:37:54.820Z,99.90
2018-10-17T17:40:23.459Z,99.90
2018-10-17T17:42:51.974Z,99.90
2018-10-17T17:45:20.897Z,99.90
2018-10-17T17:47:49.519Z,99.90
2018-10-17T17:50:18.092Z,99.90
2018-10-17T17:52:46.636Z,99.90
2018-10-17T17:55:15.293Z,99.90
2018-10-17T17:57:43.942Z,99.90
2018-10-17T18:00:12.507Z,99.90
2018-10-17T18:02:41.067Z,99.90
2018-10-17T18:05:09.616Z,99.90
2018-10-17T18:07:38.475Z,99.90
2018-10-17T18:10:07.625Z,99.90
2018-10-17T18:12:36.233Z,99.90
2018-10-17T18:15:05.206Z,99.90
2018-10-17T18:17:33.741Z,99.90
2018-10-17T18:20:02.405Z,99.90
2018-10-17T18:22:31.106Z,99.90
2018-10-17T18:25:02.362Z,99.90
2018-10-17T18:27:30.926Z,99.90
2018-10-17T18:29:59.441Z,99.90
2018-10-17T18:32:27.988Z,99.90
2018-10-17T18:34:56.698Z,99.90
2018-10-17T18:37:25.332Z,99.90
2018-10-17T18:39:53.819Z,99.90
2018-10-17T18:42:22.393Z,99.90
2018-10-17T18:44:50.896Z,99.90
2018-10-17T18:47:19.573Z,99.90
2018-10-17T18:49:48.123Z,99.90
2018-10-17T18:52:16.684Z,99.90
2018-10-17T18:54:45.237Z,99.90
2018-10-17T18:57:13.840Z,99.90
2018-10-17T18:59:42.318Z,99.90
2018-10-17T19:02:10.870Z,99.90
2018-10-17T19:04:39.393Z,99.90
2018-10-17T19:07:08.755Z,99.90
2018-10-17T19:09:38.358Z,99.90
2018-10-17T19:12:07.139Z,99.90
2018-10-17T19:14:35.720Z,99.90
2018-10-17T19:17:04.793Z,99.90
2018-10-17T19:19:33.500Z,99.90
2018-10-17T19:22:02.436Z,99.90
2018-10-17T19:24:30.973Z,99.90
2018-10-17T19:26:59.598Z,99.90
2018-10-17T19:29:28.167Z,99.90
2018-10-17T19:31:56.767Z,99.90
2018-10-17T19:34:25.312Z,99.90
2018-10-17T19:36:53.892Z,99.90
2018-10-17T19:39:22.441Z,99.90
2018-10-17T19:41:51.008Z,99.90
2018-10-17T19:44:19.507Z,99.90
2018-10-17T19:46:48.069Z,99.90
2018-10-17T19:49:16.594Z,99.90
2018-10-17T19:51:45.239Z,99.90
2018-10-17T19:54:13.784Z,99.90
2018-10-17T19:56:42.403Z,99.90
2018-10-17T19:59:10.922Z,99.90
2018-10-17T20:01:39.536Z,99.90
2018-10-17T20:04:08.023Z,99.90
2018-10-17T20:06:36.611Z,99.90
2018-10-17T20:09:08.198Z,99.90
2018-10-17T20:11:36.857Z,99.90
2018-10-17T20:14:05.429Z,99.90
2018-10-17T20:16:33.991Z,99.90
2018-10-17T20:19:02.560Z,99.90
2018-10-17T20:21:31.195Z,99.90
2018-10-17T20:24:00.474Z,99.90
2018-10-17T20:26:29.007Z,99.90
2018-10-17T20:28:57.563Z,99.90
2018-10-17T20:31:26.176Z,99.90
2018-10-17T20:33:54.711Z,99.90
2018-10-17T20:36:23.408Z,99.90
2018-10-17T20:38:51.930Z,99.90
2018-10-17T20:41:20.540Z,99.90
2018-10-17T20:43:49.114Z,99.90
2018-10-17T20:46:17.648Z,99.90
2018-10-17T20:48:46.248Z,99.90
2018-10-17T20:51:14.798Z,99.90
2018-10-17T20:53:43.371Z,99.90
2018-10-17T20:56:11.996Z,99.90
2018-10-17T20:58:40.466Z,99.90
2018-10-17T21:01:09.010Z,99.90
2018-10-17T21:03:37.519Z,99.90
2018-10-17T21:06:06.242Z,99.90
2018-10-17T21:08:34.711Z,99.90
2018-10-17T21:11:03.316Z,99.90
2018-10-17T21:13:31.826Z,99.90
2018-10-17T21:16:00.370Z,99.90
2018-10-17T21:18:28.985Z,99.90
2018-10-17T21:20:57.451Z,99.90
2018-10-17T21:23:25.994Z,99.90
2018-10-17T21:25:54.514Z,99.90
2018-10-17T21:28:23.164Z,99.90
2018-10-17T21:30:51.707Z,99.90
2018-10-17T21:33:20.275Z,99.90
2018-10-17T21:35:48.879Z,99.90
2018-10-17T21:38:17.407Z,99.90
2018-10-17T21:40:45.945Z,99.90
2018-10-17T21:43:14.446Z,99.90
2018-10-17T21:45:43.027Z,99.90
2018-10-17T21:48:11.504Z,99.90
2018-10-17T21:50:40.068Z,99.90
2018-10-17T21:53:08.576Z,99.90
2018-10-17T21:55:37.129Z,99.90
2018-10-17T21:58:05.640Z,99.90
2018-10-17T22:00:34.225Z,99.90
2018-10-17T22:03:02.671Z,99.90
2018-10-17T22:05:31.236Z,99.90
2018-10-17T22:07:59.779Z,99.90
2018-10-17T22:10:28.262Z,99.90
2018-10-17T22:12:56.757Z,99.90
2018-10-17T22:15:25.449Z,99.90
2018-10-17T22:17:53.935Z,99.90
2018-10-17T22:20:22.496Z,99.90
2018-10-17T22:22:50.985Z,99.90
2018-10-17T22:25:19.509Z,99.90
2018-10-17T22:27:48.142Z,99.90
2018-10-17T22:30:16.641Z,99.90
2018-10-17T22:32:45.180Z,99.90
2018-10-17T22:35:13.911Z,99.90
2018-10-17T22:37:42.452Z,99.90
2018-10-17T22:40:10.962Z,99.90
2018-10-17T22:42:39.460Z,99.90
2018-10-17T22:45:07.973Z,99.90
2018-10-17T22:47:36.517Z,99.90
2018-10-17T22:50:06.397Z,99.90
2018-10-17T22:52:34.892Z,99.90
2018-10-17T22:55:03.524Z,99.90
2018-10-17T22:57:32.042Z,99.90
2018-10-17T23:00:00.607Z,99.90
2018-10-17T23:02:29.145Z,99.90
2018-10-17T23:05:00.540Z,99.90
2018-10-17T23:07:29.880Z,99.90
2018-10-17T23:09:58.375Z,99.90
2018-10-17T23:12:26.948Z,99.90
2018-10-17T23:14:55.480Z,99.90
2018-10-17T23:17:24.016Z,99.90
2018-10-17T23:19:52.517Z,99.90
2018-10-17T23:22:27.975Z,99.90
2018-10-17T23:24:56.491Z,99.90
2018-10-17T23:27:25.051Z,99.90
2018-10-17T23:29:53.556Z,99.90
2018-10-17T23:32:22.088Z,99.90
2018-10-17T23:34:50.589Z,99.90
2018-10-17T23:37:19.149Z,99.90
2018-10-17T23:39:47.609Z,99.90
2018-10-17T23:42:16.211Z,99.90
2018-10-17T23:44:44.683Z,99.90
2018-10-17T23:47:13.189Z,99.90
2018-10-17T23:49:41.734Z,99.90
2018-10-17T23:52:10.222Z,99.90
2018-10-17T23:54:38.786Z,99.90
2018-10-17T23:57:07.347Z,99.90
2018-10-17T23:59:35.832Z,99.90
